sensor_id;sensor_type;location;lat;lon;timestamp;pressure;altitude;pressure_sealevel;temperature;humidity
84147;BME280;74267;50.434;7.398;2024-03-06T00:02:07;100980.06;;;7.55;89.34
84147;BME280;74267;50.434;7.398;2024-03-06T00:04:33;100979.59;;;7.51;89.33
84147;BME280;74267;50.434;7.398;2024-03-06T00:06:58;100983.22;;;7.50;89.00
84147;BME280;74267;50.434;7.398;2024-03-06T00:09:24;100990.06;;;7.51;88.60
84147;BME280;74267;50.434;7.398;2024-03-06T00:11:52;100992.41;;;7.46;87.97
84147;BME280;74267;50.434;7.398;2024-03-06T00:14:18;100989.22;;;7.36;87.99
84147;BME280;74267;50.434;7.398;2024-03-06T00:16:43;100995.59;;;7.34;88.02
84147;BME280;74267;50.434;7.398;2024-03-06T00:19:08;101003.75;;;7.39;86.95
84147;BME280;74267;50.434;7.398;2024-03-06T00:21:35;100998.03;;;7.35;86.64
84147;BME280;74267;50.434;7.398;2024-03-06T00:24:01;101004.34;;;7.26;87.10
84147;BME280;74267;50.434;7.398;2024-03-06T00:26:27;101002.78;;;7.09;87.84
84147;BME280;74267;50.434;7.398;2024-03-06T00:28:52;101004.78;;;7.07;87.72
84147;BME280;74267;50.434;7.398;2024-03-06T00:31:17;101015.41;;;7.06;87.66
84147;BME280;74267;50.434;7.398;2024-03-06T00:33:43;101023.78;;;7.01;87.13
84147;BME280;74267;50.434;7.398;2024-03-06T00:36:08;101023.66;;;6.95;87.49
84147;BME280;74267;50.434;7.398;2024-03-06T00:38:34;101030.84;;;6.93;87.18
84147;BME280;74267;50.434;7.398;2024-03-06T00:40:59;101020.94;;;6.80;87.88
84147;BME280;74267;50.434;7.398;2024-03-06T00:43:24;101037.16;;;6.68;87.87
84147;BME280;74267;50.434;7.398;2024-03-06T00:45:50;101033.41;;;6.62;88.07
84147;BME280;74267;50.434;7.398;2024-03-06T00:48:15;101039.00;;;6.59;87.89
84147;BME280;74267;50.434;7.398;2024-03-06T00:50:40;101034.78;;;6.50;88.99
84147;BME280;74267;50.434;7.398;2024-03-06T00:53:06;101038.72;;;6.46;87.98
84147;BME280;74267;50.434;7.398;2024-03-06T00:55:31;101043.13;;;6.46;87.79
84147;BME280;74267;50.434;7.398;2024-03-06T00:57:57;101042.28;;;6.53;86.45
84147;BME280;74267;50.434;7.398;2024-03-06T01:00:22;101046.56;;;6.46;87.42
84147;BME280;74267;50.434;7.398;2024-03-06T01:02:48;101048.69;;;6.43;86.67
84147;BME280;74267;50.434;7.398;2024-03-06T01:05:13;101056.06;;;6.31;87.42
84147;BME280;74267;50.434;7.398;2024-03-06T01:07:38;101055.09;;;6.24;88.52
84147;BME280;74267;50.434;7.398;2024-03-06T01:10:05;101059.66;;;6.06;88.45
84147;BME280;74267;50.434;7.398;2024-03-06T01:12:32;101063.28;;;6.13;89.06
84147;BME280;74267;50.434;7.398;2024-03-06T01:14:57;101060.31;;;6.24;87.11
84147;BME280;74267;50.434;7.398;2024-03-06T01:17:23;101066.84;;;6.12;86.64
84147;BME280;74267;50.434;7.398;2024-03-06T01:19:48;101067.19;;;6.09;86.74
84147;BME280;74267;50.434;7.398;2024-03-06T01:22:14;101073.09;;;6.03;87.57
84147;BME280;74267;50.434;7.398;2024-03-06T01:24:40;101071.13;;;5.97;87.21
84147;BME280;74267;50.434;7.398;2024-03-06T01:27:05;101078.31;;;5.87;87.92
84147;BME280;74267;50.434;7.398;2024-03-06T01:29:31;101083.84;;;5.84;88.79
84147;BME280;74267;50.434;7.398;2024-03-06T01:31:57;101078.56;;;5.76;88.17
84147;BME280;74267;50.434;7.398;2024-03-06T01:34:23;101080.75;;;5.89;88.42
84147;BME280;74267;50.434;7.398;2024-03-06T01:36:48;101082.06;;;5.93;86.86
84147;BME280;74267;50.434;7.398;2024-03-06T01:39:14;101083.69;;;5.86;87.10
84147;BME280;74267;50.434;7.398;2024-03-06T01:41:46;101082.22;;;5.83;87.01
84147;BME280;74267;50.434;7.398;2024-03-06T01:44:12;101083.16;;;5.74;88.07
84147;BME280;74267;50.434;7.398;2024-03-06T01:46:38;101085.44;;;5.69;88.52
84147;BME280;74267;50.434;7.398;2024-03-06T01:49:03;101077.91;;;5.58;87.45
84147;BME280;74267;50.434;7.398;2024-03-06T01:51:29;101079.38;;;5.53;88.89
84147;BME280;74267;50.434;7.398;2024-03-06T01:53:55;101077.09;;;5.58;88.03
84147;BME280;74267;50.434;7.398;2024-03-06T01:56:20;101087.22;;;5.61;87.82
84147;BME280;74267;50.434;7.398;2024-03-06T01:58:46;101076.28;;;5.65;88.08
84147;BME280;74267;50.434;7.398;2024-03-06T02:01:12;101077.94;;;5.74;87.60
84147;BME280;74267;50.434;7.398;2024-03-06T02:03:38;101072.06;;;5.80;87.29
84147;BME280;74267;50.434;7.398;2024-03-06T02:06:04;101071.41;;;5.70;87.19
84147;BME280;74267;50.434;7.398;2024-03-06T02:08:30;101065.31;;;5.54;87.06
84147;BME280;74267;50.434;7.398;2024-03-06T02:10:57;101064.19;;;5.48;88.56
84147;BME280;74267;50.434;7.398;2024-03-06T02:13:22;101064.19;;;5.56;88.44
84147;BME280;74267;50.434;7.398;2024-03-06T02:15:48;101070.75;;;5.60;88.17
84147;BME280;74267;50.434;7.398;2024-03-06T02:18:14;101066.47;;;5.59;87.71
84147;BME280;74267;50.434;7.398;2024-03-06T02:20:39;101079.53;;;5.59;87.11
84147;BME280;74267;50.434;7.398;2024-03-06T02:23:05;101072.38;;;5.61;86.91
84147;BME280;74267;50.434;7.398;2024-03-06T02:25:30;101071.06;;;5.57;87.17
84147;BME280;74267;50.434;7.398;2024-03-06T02:27:56;101079.69;;;5.50;87.19
84147;BME280;74267;50.434;7.398;2024-03-06T02:30:21;101066.78;;;5.48;87.19
84147;BME280;74267;50.434;7.398;2024-03-06T02:32:46;101075.25;;;5.42;88.01
84147;BME280;74267;50.434;7.398;2024-03-06T02:35:12;101071.34;;;5.38;87.09
84147;BME280;74267;50.434;7.398;2024-03-06T02:37:38;101076.19;;;5.25;87.45
84147;BME280;74267;50.434;7.398;2024-03-06T02:40:06;101077.19;;;5.24;88.78
84147;BME280;74267;50.434;7.398;2024-03-06T02:42:32;101068.03;;;5.20;87.94
84147;BME280;74267;50.434;7.398;2024-03-06T02:44:57;101063.28;;;5.16;87.79
84147;BME280;74267;50.434;7.398;2024-03-06T02:47:23;101060.84;;;5.14;87.82
84147;BME280;74267;50.434;7.398;2024-03-06T02:49:48;101069.31;;;5.16;87.83
84147;BME280;74267;50.434;7.398;2024-03-06T02:52:14;101071.53;;;5.03;88.10
84147;BME280;74267;50.434;7.398;2024-03-06T02:54:41;101078.19;;;4.89;88.73
84147;BME280;74267;50.434;7.398;2024-03-06T02:57:07;101075.06;;;4.86;88.47
84147;BME280;74267;50.434;7.398;2024-03-06T02:59:32;101090.09;;;4.92;88.90
84147;BME280;74267;50.434;7.398;2024-03-06T03:01:58;101086.31;;;4.86;89.34
84147;BME280;74267;50.434;7.398;2024-03-06T03:04:23;101089.09;;;4.85;89.33
84147;BME280;74267;50.434;7.398;2024-03-06T03:06:48;101081.28;;;4.93;88.76
84147;BME280;74267;50.434;7.398;2024-03-06T03:09:14;101094.50;;;4.91;89.51
84147;BME280;74267;50.434;7.398;2024-03-06T03:11:39;101094.00;;;4.88;89.51
84147;BME280;74267;50.434;7.398;2024-03-06T03:14:04;101104.72;;;4.85;90.08
84147;BME280;74267;50.434;7.398;2024-03-06T03:16:30;101113.22;;;4.87;89.82
84147;BME280;74267;50.434;7.398;2024-03-06T03:18:57;101120.59;;;4.91;90.85
84147;BME280;74267;50.434;7.398;2024-03-06T03:21:22;101121.38;;;4.84;90.47
84147;BME280;74267;50.434;7.398;2024-03-06T03:23:48;101120.38;;;4.85;91.83
84147;BME280;74267;50.434;7.398;2024-03-06T03:26:15;101125.00;;;4.91;92.22
84147;BME280;74267;50.434;7.398;2024-03-06T03:28:40;101130.53;;;4.96;92.35
84147;BME280;74267;50.434;7.398;2024-03-06T03:31:09;101128.44;;;4.99;90.85
84147;BME280;74267;50.434;7.398;2024-03-06T03:33:38;101116.56;;;5.05;89.98
84147;BME280;74267;50.434;7.398;2024-03-06T03:36:05;101127.00;;;5.05;90.02
84147;BME280;74267;50.434;7.398;2024-03-06T03:38:31;101131.22;;;4.98;88.72
84147;BME280;74267;50.434;7.398;2024-03-06T03:40:56;101131.53;;;4.95;89.42
84147;BME280;74267;50.434;7.398;2024-03-06T03:43:21;101136.75;;;4.95;89.22
84147;BME280;74267;50.434;7.398;2024-03-06T03:45:47;101132.59;;;4.84;89.09
84147;BME280;74267;50.434;7.398;2024-03-06T03:48:12;101137.00;;;4.84;89.51
84147;BME280;74267;50.434;7.398;2024-03-06T03:50:37;101129.44;;;4.73;89.49
84147;BME280;74267;50.434;7.398;2024-03-06T03:53:03;101132.03;;;4.73;89.30
84147;BME280;74267;50.434;7.398;2024-03-06T03:55:29;101143.75;;;4.69;88.88
84147;BME280;74267;50.434;7.398;2024-03-06T03:57:54;101146.66;;;4.66;87.66
84147;BME280;74267;50.434;7.398;2024-03-06T04:00:20;101152.81;;;4.57;88.27
84147;BME280;74267;50.434;7.398;2024-03-06T04:02:45;101156.19;;;4.49;87.49
84147;BME280;74267;50.434;7.398;2024-03-06T04:05:11;101151.06;;;4.40;86.96
84147;BME280;74267;50.434;7.398;2024-03-06T04:07:37;101158.16;;;4.30;86.92
84147;BME280;74267;50.434;7.398;2024-03-06T04:10:03;101156.00;;;4.25;88.35
84147;BME280;74267;50.434;7.398;2024-03-06T04:12:28;101157.47;;;4.28;88.21
84147;BME280;74267;50.434;7.398;2024-03-06T04:14:54;101156.72;;;4.35;88.07
84147;BME280;74267;50.434;7.398;2024-03-06T04:17:19;101149.66;;;4.45;88.56
84147;BME280;74267;50.434;7.398;2024-03-06T04:19:45;101153.44;;;4.51;87.86
84147;BME280;74267;50.434;7.398;2024-03-06T04:22:10;101156.69;;;4.53;89.23
84147;BME280;74267;50.434;7.398;2024-03-06T04:24:35;101160.81;;;4.38;89.18
84147;BME280;74267;50.434;7.398;2024-03-06T04:27:01;101164.59;;;4.43;90.44
84147;BME280;74267;50.434;7.398;2024-03-06T04:29:26;101169.66;;;4.45;89.95
84147;BME280;74267;50.434;7.398;2024-03-06T04:31:51;101167.09;;;4.53;90.55
84147;BME280;74267;50.434;7.398;2024-03-06T04:34:17;101168.78;;;4.54;89.83
84147;BME280;74267;50.434;7.398;2024-03-06T04:36:42;101175.59;;;4.55;89.32
84147;BME280;74267;50.434;7.398;2024-03-06T04:39:07;101176.94;;;4.59;88.86
84147;BME280;74267;50.434;7.398;2024-03-06T04:41:33;101187.06;;;4.62;89.79
84147;BME280;74267;50.434;7.398;2024-03-06T04:43:59;101190.22;;;4.48;89.83
84147;BME280;74267;50.434;7.398;2024-03-06T04:46:26;101179.66;;;4.49;90.11
84147;BME280;74267;50.434;7.398;2024-03-06T04:48:52;101179.50;;;4.51;88.96
84147;BME280;74267;50.434;7.398;2024-03-06T04:51:17;101188.91;;;4.44;88.93
84147;BME280;74267;50.434;7.398;2024-03-06T04:53:45;101187.41;;;4.24;89.13
84147;BME280;74267;50.434;7.398;2024-03-06T04:56:10;101194.84;;;4.19;90.03
84147;BME280;74267;50.434;7.398;2024-03-06T04:58:36;101198.94;;;4.21;89.21
84147;BME280;74267;50.434;7.398;2024-03-06T05:01:01;101197.44;;;4.19;88.86
84147;BME280;74267;50.434;7.398;2024-03-06T05:03:26;101201.09;;;3.91;89.43
84147;BME280;74267;50.434;7.398;2024-03-06T05:05:52;101199.97;;;3.93;88.72
84147;BME280;74267;50.434;7.398;2024-03-06T05:08:17;101207.34;;;3.98;88.46
84147;BME280;74267;50.434;7.398;2024-03-06T05:10:42;101211.22;;;3.94;89.18
84147;BME280;74267;50.434;7.398;2024-03-06T05:13:07;101209.88;;;3.90;88.59
84147;BME280;74267;50.434;7.398;2024-03-06T05:15:33;101222.91;;;3.90;89.22
84147;BME280;74267;50.434;7.398;2024-03-06T05:17:59;101230.03;;;3.88;89.55
84147;BME280;74267;50.434;7.398;2024-03-06T05:20:25;101221.09;;;3.90;89.78
84147;BME280;74267;50.434;7.398;2024-03-06T05:22:51;101227.44;;;3.88;89.81
84147;BME280;74267;50.434;7.398;2024-03-06T05:25:16;101233.22;;;3.82;89.36
84147;BME280;74267;50.434;7.398;2024-03-06T05:27:41;101239.78;;;3.86;89.01
84147;BME280;74267;50.434;7.398;2024-03-06T05:30:07;101245.25;;;3.83;88.54
84147;BME280;74267;50.434;7.398;2024-03-06T05:32:33;101250.47;;;3.83;88.60
84147;BME280;74267;50.434;7.398;2024-03-06T05:34:59;101251.44;;;3.82;88.68
84147;BME280;74267;50.434;7.398;2024-03-06T05:37:24;101253.75;;;3.85;89.03
84147;BME280;74267;50.434;7.398;2024-03-06T05:39:50;101244.97;;;3.86;89.33
84147;BME280;74267;50.434;7.398;2024-03-06T05:42:15;101253.19;;;3.91;89.58
84147;BME280;74267;50.434;7.398;2024-03-06T05:44:41;101255.78;;;3.91;89.87
84147;BME280;74267;50.434;7.398;2024-03-06T05:47:06;101255.09;;;3.89;89.86
84147;BME280;74267;50.434;7.398;2024-03-06T05:49:32;101258.69;;;3.88;88.78
84147;BME280;74267;50.434;7.398;2024-03-06T05:51:58;101263.34;;;3.84;89.69
84147;BME280;74267;50.434;7.398;2024-03-06T05:54:23;101264.19;;;3.85;89.30
84147;BME280;74267;50.434;7.398;2024-03-06T05:56:50;101267.47;;;3.87;89.59
84147;BME280;74267;50.434;7.398;2024-03-06T05:59:16;101271.41;;;3.91;89.35
84147;BME280;74267;50.434;7.398;2024-03-06T06:01:42;101274.25;;;3.97;89.36
84147;BME280;74267;50.434;7.398;2024-03-06T06:04:11;101272.63;;;3.96;89.38
84147;BME280;74267;50.434;7.398;2024-03-06T06:06:37;101281.41;;;3.95;88.96
84147;BME280;74267;50.434;7.398;2024-03-06T06:09:03;101285.78;;;3.95;89.47
84147;BME280;74267;50.434;7.398;2024-03-06T06:11:31;101287.41;;;3.96;88.70
84147;BME280;74267;50.434;7.398;2024-03-06T06:13:58;101292.06;;;4.02;88.34
84147;BME280;74267;50.434;7.398;2024-03-06T06:16:23;101297.53;;;3.99;89.57
84147;BME280;74267;50.434;7.398;2024-03-06T06:18:48;101294.56;;;3.94;89.78
84147;BME280;74267;50.434;7.398;2024-03-06T06:21:14;101295.38;;;3.94;89.83
84147;BME280;74267;50.434;7.398;2024-03-06T06:23:41;101293.59;;;3.95;89.20
84147;BME280;74267;50.434;7.398;2024-03-06T06:26:06;101307.88;;;3.91;89.83
84147;BME280;74267;50.434;7.398;2024-03-06T06:28:31;101311.28;;;3.91;89.30
84147;BME280;74267;50.434;7.398;2024-03-06T06:30:57;101307.75;;;3.83;89.78
84147;BME280;74267;50.434;7.398;2024-03-06T06:33:22;101322.31;;;3.85;89.59
84147;BME280;74267;50.434;7.398;2024-03-06T06:35:47;101320.13;;;3.81;89.88
84147;BME280;74267;50.434;7.398;2024-03-06T06:38:13;101328.59;;;3.83;88.96
84147;BME280;74267;50.434;7.398;2024-03-06T06:40:39;101326.25;;;3.89;88.99
84147;BME280;74267;50.434;7.398;2024-03-06T06:43:05;101333.94;;;3.91;87.70
84147;BME280;74267;50.434;7.398;2024-03-06T06:45:31;101330.50;;;3.90;87.92
84147;BME280;74267;50.434;7.398;2024-03-06T06:47:57;101336.97;;;3.86;88.75
84147;BME280;74267;50.434;7.398;2024-03-06T06:50:22;101334.72;;;3.91;87.91
84147;BME280;74267;50.434;7.398;2024-03-06T06:52:50;101345.31;;;3.90;88.55
84147;BME280;74267;50.434;7.398;2024-03-06T06:55:16;101342.03;;;3.88;88.29
84147;BME280;74267;50.434;7.398;2024-03-06T06:57:41;101352.16;;;3.91;89.08
84147;BME280;74267;50.434;7.398;2024-03-06T07:00:07;101351.81;;;4.03;88.37
84147;BME280;74267;50.434;7.398;2024-03-06T07:02:41;101351.78;;;4.13;88.70
84147;BME280;74267;50.434;7.398;2024-03-06T07:05:07;101347.03;;;4.26;88.52
84147;BME280;74267;50.434;7.398;2024-03-06T07:07:33;101351.94;;;4.38;88.28
84147;BME280;74267;50.434;7.398;2024-03-06T07:09:59;101358.34;;;4.44;87.79
84147;BME280;74267;50.434;7.398;2024-03-06T07:12:24;101360.38;;;4.50;88.33
84147;BME280;74267;50.434;7.398;2024-03-06T07:14:50;101362.47;;;4.64;88.12
84147;BME280;74267;50.434;7.398;2024-03-06T07:17:15;101355.00;;;4.69;87.77
84147;BME280;74267;50.434;7.398;2024-03-06T07:19:40;101359.78;;;4.73;86.53
84147;BME280;74267;50.434;7.398;2024-03-06T07:22:06;101352.34;;;4.78;87.50
84147;BME280;74267;50.434;7.398;2024-03-06T07:24:31;101352.84;;;4.82;86.76
84147;BME280;74267;50.434;7.398;2024-03-06T07:26:56;101352.25;;;4.88;86.37
84147;BME280;74267;50.434;7.398;2024-03-06T07:29:22;101358.91;;;5.00;86.40
84147;BME280;74267;50.434;7.398;2024-03-06T07:31:47;101360.13;;;4.96;88.01
84147;BME280;74267;50.434;7.398;2024-03-06T07:34:13;101362.44;;;4.99;87.45
84147;BME280;74267;50.434;7.398;2024-03-06T07:36:40;101369.34;;;5.00;88.97
84147;BME280;74267;50.434;7.398;2024-03-06T07:39:05;101382.28;;;5.09;87.73
84147;BME280;74267;50.434;7.398;2024-03-06T07:41:30;101379.28;;;5.22;86.81
84147;BME280;74267;50.434;7.398;2024-03-06T07:43:58;101385.53;;;5.29;87.73
84147;BME280;74267;50.434;7.398;2024-03-06T07:46:24;101382.06;;;5.46;87.22
84147;BME280;74267;50.434;7.398;2024-03-06T07:48:50;101380.97;;;5.49;87.55
84147;BME280;74267;50.434;7.398;2024-03-06T07:51:17;101384.53;;;5.48;86.02
84147;BME280;74267;50.434;7.398;2024-03-06T07:53:42;101385.47;;;5.39;86.25
84147;BME280;74267;50.434;7.398;2024-03-06T07:56:10;101376.06;;;5.46;83.91
84147;BME280;74267;50.434;7.398;2024-03-06T07:58:36;101389.75;;;5.48;84.83
84147;BME280;74267;50.434;7.398;2024-03-06T08:01:02;101391.50;;;5.39;84.95
84147;BME280;74267;50.434;7.398;2024-03-06T08:03:28;101395.28;;;5.45;84.78
84147;BME280;74267;50.434;7.398;2024-03-06T08:05:53;101399.59;;;5.54;85.41
84147;BME280;74267;50.434;7.398;2024-03-06T08:08:19;101399.16;;;5.58;84.52
84147;BME280;74267;50.434;7.398;2024-03-06T08:10:44;101400.84;;;5.67;85.32
84147;BME280;74267;50.434;7.398;2024-03-06T08:13:12;101406.72;;;5.69;85.50
84147;BME280;74267;50.434;7.398;2024-03-06T08:15:38;101408.41;;;5.78;83.47
84147;BME280;74267;50.434;7.398;2024-03-06T08:18:05;101416.00;;;5.81;83.48
84147;BME280;74267;50.434;7.398;2024-03-06T08:20:31;101414.69;;;5.85;83.75
84147;BME280;74267;50.434;7.398;2024-03-06T08:22:56;101415.72;;;5.92;84.24
84147;BME280;74267;50.434;7.398;2024-03-06T08:25:22;101412.75;;;5.87;83.01
84147;BME280;74267;50.434;7.398;2024-03-06T08:27:48;101413.09;;;5.92;83.25
84147;BME280;74267;50.434;7.398;2024-03-06T08:30:13;101418.34;;;5.92;84.97
84147;BME280;74267;50.434;7.398;2024-03-06T08:32:39;101418.09;;;6.03;84.14
84147;BME280;74267;50.434;7.398;2024-03-06T08:35:05;101426.88;;;6.02;84.17
84147;BME280;74267;50.434;7.398;2024-03-06T08:37:32;101426.28;;;6.08;83.59
84147;BME280;74267;50.434;7.398;2024-03-06T08:39:59;101426.28;;;6.08;84.33
84147;BME280;74267;50.434;7.398;2024-03-06T08:42:24;101433.22;;;6.25;84.69
84147;BME280;74267;50.434;7.398;2024-03-06T08:44:50;101431.13;;;6.29;84.70
84147;BME280;74267;50.434;7.398;2024-03-06T08:47:15;101435.06;;;6.33;83.91
84147;BME280;74267;50.434;7.398;2024-03-06T08:49:41;101433.28;;;6.41;83.50
84147;BME280;74267;50.434;7.398;2024-03-06T08:52:06;101432.63;;;6.39;84.00
84147;BME280;74267;50.434;7.398;2024-03-06T08:54:32;101437.53;;;6.34;83.26
84147;BME280;74267;50.434;7.398;2024-03-06T08:56:57;101447.28;;;6.24;84.35
84147;BME280;74267;50.434;7.398;2024-03-06T08:59:23;101447.41;;;6.15;84.37
84147;BME280;74267;50.434;7.398;2024-03-06T09:01:51;101446.84;;;6.03;85.58
84147;BME280;74267;50.434;7.398;2024-03-06T09:04:17;101438.78;;;5.97;85.31
84147;BME280;74267;50.434;7.398;2024-03-06T09:06:43;101441.97;;;6.08;85.83
84147;BME280;74267;50.434;7.398;2024-03-06T09:09:08;101437.19;;;6.04;85.46
84147;BME280;74267;50.434;7.398;2024-03-06T09:11:34;101443.50;;;6.19;85.19
84147;BME280;74267;50.434;7.398;2024-03-06T09:14:00;101441.75;;;6.35;85.70
84147;BME280;74267;50.434;7.398;2024-03-06T09:16:25;101450.63;;;6.42;85.08
84147;BME280;74267;50.434;7.398;2024-03-06T09:18:50;101452.97;;;6.53;84.78
84147;BME280;74267;50.434;7.398;2024-03-06T09:21:16;101462.44;;;6.46;83.83
84147;BME280;74267;50.434;7.398;2024-03-06T09:23:41;101456.47;;;6.36;83.83
84147;BME280;74267;50.434;7.398;2024-03-06T09:26:07;101463.06;;;6.40;84.93
84147;BME280;74267;50.434;7.398;2024-03-06T09:28:32;101472.91;;;6.46;85.03
84147;BME280;74267;50.434;7.398;2024-03-06T09:30:58;101471.28;;;6.53;84.11
84147;BME280;74267;50.434;7.398;2024-03-06T09:33:23;101469.91;;;6.41;84.25
84147;BME280;74267;50.434;7.398;2024-03-06T09:35:48;101474.78;;;6.36;84.62
84147;BME280;74267;50.434;7.398;2024-03-06T09:38:14;101471.50;;;6.34;84.42
84147;BME280;74267;50.434;7.398;2024-03-06T09:40:39;101472.56;;;6.49;84.83
84147;BME280;74267;50.434;7.398;2024-03-06T09:43:08;101475.50;;;6.46;84.41
84147;BME280;74267;50.434;7.398;2024-03-06T09:45:34;101480.41;;;6.49;84.34
84147;BME280;74267;50.434;7.398;2024-03-06T09:48:01;101481.34;;;6.40;84.31
84147;BME280;74267;50.434;7.398;2024-03-06T09:50:28;101482.69;;;6.44;85.29
84147;BME280;74267;50.434;7.398;2024-03-06T09:52:55;101485.31;;;6.52;84.50
84147;BME280;74267;50.434;7.398;2024-03-06T09:55:21;101493.53;;;6.57;84.79
84147;BME280;74267;50.434;7.398;2024-03-06T09:57:47;101487.31;;;6.58;84.76
84147;BME280;74267;50.434;7.398;2024-03-06T10:00:14;101489.97;;;6.66;84.15
84147;BME280;74267;50.434;7.398;2024-03-06T10:02:58;101483.38;;;6.54;84.80
84147;BME280;74267;50.434;7.398;2024-03-06T10:05:26;101484.97;;;6.47;84.13
84147;BME280;74267;50.434;7.398;2024-03-06T10:07:52;101489.91;;;6.50;85.25
84147;BME280;74267;50.434;7.398;2024-03-06T10:10:19;101496.16;;;6.65;85.50
84147;BME280;74267;50.434;7.398;2024-03-06T10:12:45;101492.09;;;6.71;84.80
84147;BME280;74267;50.434;7.398;2024-03-06T10:15:13;101495.84;;;6.60;85.73
84147;BME280;74267;50.434;7.398;2024-03-06T10:17:38;101493.56;;;6.65;85.34
84147;BME280;74267;50.434;7.398;2024-03-06T10:20:23;101491.78;;;6.74;85.43
84147;BME280;74267;50.434;7.398;2024-03-06T10:22:52;101490.53;;;6.86;86.02
84147;BME280;74267;50.434;7.398;2024-03-06T10:25:21;101491.38;;;7.02;86.23
84147;BME280;74267;50.434;7.398;2024-03-06T10:28:10;101490.13;;;7.14;84.94
84147;BME280;74267;50.434;7.398;2024-03-06T10:30:40;101489.44;;;7.12;84.93
84147;BME280;74267;50.434;7.398;2024-03-06T10:33:10;101487.81;;;7.19;84.59
84147;BME280;74267;50.434;7.398;2024-03-06T10:35:37;101491.75;;;7.15;84.66
84147;BME280;74267;50.434;7.398;2024-03-06T10:38:05;101492.91;;;7.13;84.64
84147;BME280;74267;50.434;7.398;2024-03-06T10:40:38;101487.50;;;7.22;85.19
84147;BME280;74267;50.434;7.398;2024-03-06T10:43:04;101492.63;;;7.48;84.35
84147;BME280;74267;50.434;7.398;2024-03-06T10:45:49;101495.72;;;7.76;84.78
84147;BME280;74267;50.434;7.398;2024-03-06T10:48:17;101493.59;;;7.87;83.95
84147;BME280;74267;50.434;7.398;2024-03-06T10:50:43;101480.31;;;7.73;83.29
84147;BME280;74267;50.434;7.398;2024-03-06T10:53:11;101490.81;;;7.89;82.90
84147;BME280;74267;50.434;7.398;2024-03-06T10:55:37;101501.97;;;7.91;83.50
84147;BME280;74267;50.434;7.398;2024-03-06T10:58:07;101498.03;;;7.87;82.42
84147;BME280;74267;50.434;7.398;2024-03-06T11:00:35;101497.84;;;8.04;82.97
84147;BME280;74267;50.434;7.398;2024-03-06T11:03:05;101492.44;;;8.06;82.00
84147;BME280;74267;50.434;7.398;2024-03-06T11:05:36;101494.88;;;8.23;82.13
84147;BME280;74267;50.434;7.398;2024-03-06T11:08:06;101496.66;;;8.39;81.62
84147;BME280;74267;50.434;7.398;2024-03-06T11:10:33;101504.50;;;8.47;81.17
84147;BME280;74267;50.434;7.398;2024-03-06T11:13:01;101497.09;;;8.50;80.94
84147;BME280;74267;50.434;7.398;2024-03-06T11:15:27;101496.97;;;8.44;80.65
84147;BME280;74267;50.434;7.398;2024-03-06T11:17:52;101489.28;;;8.42;81.66
84147;BME280;74267;50.434;7.398;2024-03-06T11:20:20;101489.91;;;8.44;81.66
84147;BME280;74267;50.434;7.398;2024-03-06T11:28:11;101495.53;;;8.80;80.72
84147;BME280;74267;50.434;7.398;2024-03-06T11:31:04;101489.97;;;8.75;80.02
84147;BME280;74267;50.434;7.398;2024-03-06T11:33:36;101489.41;;;8.87;79.69
84147;BME280;74267;50.434;7.398;2024-03-06T11:36:23;101493.50;;;8.90;78.74
84147;BME280;74267;50.434;7.398;2024-03-06T11:38:59;101488.56;;;8.95;79.14
84147;BME280;74267;50.434;7.398;2024-03-06T11:41:26;101490.75;;;9.14;78.37
84147;BME280;74267;50.434;7.398;2024-03-06T11:43:52;101491.34;;;9.24;78.11
84147;BME280;74267;50.434;7.398;2024-03-06T11:51:49;101478.91;;;9.18;77.90
84147;BME280;74267;50.434;7.398;2024-03-06T11:54:14;101476.78;;;9.36;77.61
84147;BME280;74267;50.434;7.398;2024-03-06T11:56:40;101480.47;;;9.49;76.37
84147;BME280;74267;50.434;7.398;2024-03-06T11:59:06;101478.94;;;9.55;76.59
84147;BME280;74267;50.434;7.398;2024-03-06T12:01:33;101462.72;;;9.51;76.27
84147;BME280;74267;50.434;7.398;2024-03-06T12:03:58;101470.78;;;9.50;75.71
84147;BME280;74267;50.434;7.398;2024-03-06T12:06:23;101466.34;;;9.73;76.18
84147;BME280;74267;50.434;7.398;2024-03-06T12:08:49;101458.00;;;9.84;75.53
84147;BME280;74267;50.434;7.398;2024-03-06T12:11:14;101459.53;;;9.78;74.67
84147;BME280;74267;50.434;7.398;2024-03-06T12:13:41;101448.41;;;9.91;74.75
84147;BME280;74267;50.434;7.398;2024-03-06T12:16:07;101453.84;;;10.04;74.47
84147;BME280;74267;50.434;7.398;2024-03-06T12:18:33;101448.97;;;10.01;73.12
84147;BME280;74267;50.434;7.398;2024-03-06T12:21:01;101457.25;;;10.27;74.11
84147;BME280;74267;50.434;7.398;2024-03-06T12:23:28;101455.00;;;10.39;72.39
84147;BME280;74267;50.434;7.398;2024-03-06T12:26:07;101453.78;;;10.56;72.14
84147;BME280;74267;50.434;7.398;2024-03-06T12:28:35;101443.75;;;10.80;71.75
84147;BME280;74267;50.434;7.398;2024-03-06T12:31:04;101444.19;;;10.84;71.38
84147;BME280;74267;50.434;7.398;2024-03-06T12:33:31;101448.63;;;10.98;69.97
84147;BME280;74267;50.434;7.398;2024-03-06T12:36:04;101449.19;;;10.93;68.85
84147;BME280;74267;50.434;7.398;2024-03-06T12:38:30;101444.47;;;10.89;69.23
84147;BME280;74267;50.434;7.398;2024-03-06T12:40:56;101435.31;;;11.06;68.41
84147;BME280;74267;50.434;7.398;2024-03-06T12:43:21;101438.28;;;11.17;68.16
84147;BME280;74267;50.434;7.398;2024-03-06T12:45:46;101437.53;;;11.23;68.74
84147;BME280;74267;50.434;7.398;2024-03-06T12:48:12;101439.28;;;11.37;68.18
84147;BME280;74267;50.434;7.398;2024-03-06T12:50:38;101436.50;;;11.45;66.15
84147;BME280;74267;50.434;7.398;2024-03-06T12:53:03;101436.41;;;11.53;67.16
84147;BME280;74267;50.434;7.398;2024-03-06T12:55:32;101431.75;;;11.76;66.48
84147;BME280;74267;50.434;7.398;2024-03-06T12:57:57;101435.41;;;11.61;64.62
84147;BME280;74267;50.434;7.398;2024-03-06T13:00:23;101432.09;;;11.52;65.92
84147;BME280;74267;50.434;7.398;2024-03-06T13:02:49;101425.47;;;11.56;66.22
84147;BME280;74267;50.434;7.398;2024-03-06T13:05:18;101432.78;;;11.61;64.56
84147;BME280;74267;50.434;7.398;2024-03-06T13:07:44;101424.97;;;11.67;64.94